Latest Coastal Weather Observations for Taree Airport

IDN60701

Issued at 4:11 pm EST Tuesday 4 August 2020 (issued every 10 minutes, with the page automatically refreshed every 10 minutes)

About coastal observations | Map of coastal stations | Coastal observations for NSW | Marine services | Other Formats
Station Details ID: 060141 Name: TAREE AIRPORT AWS Lat: -31.89 Lon: 152.51 Height: 8.0 m
Data from the previous 72 hours. | See also: Recent months at Taree Airport
Date/Time
EST
Wind Sea
Height
m
Swell Vis
km
Cloud Weather Temp
°C
Press
hPa
Rain since
9am
mm
Dir  Spd
kts
Gust
kts
Height
m
Period
s
Dir
04/04:00pm ENE 9 11 - - - - 10 Clear - 19.8 1009.9 0.2
04/03:30pm E 8 10 - - - - 10 - - 20.1 1009.7 0.2
04/03:00pm ESE 7 11 - - - - 10 - - 20.5 1009.5 0.2
04/02:30pm W 8 14 - - - - 10 - - 22.8 1009.5 0.2
04/02:00pm NW 8 16 - - - - 10 - - 23.0 1009.4 0.2
04/01:30pm WNW 9 15 - - - - 10 - - 22.8 1009.7 0.2
04/01:00pm S 4 8 - - - - 10 - - 21.8 1010.1 0.2
04/12:30pm SSW 6 9 - - - - 10 - - 21.4 1010.6 0.2
04/12:00pm SSW 7 10 - - - - 10 - Recent precip. 20.4 1011.3 0.2
04/11:30am SW 4 7 - - - - 10 - - 20.1 1012.2 0.2
04/11:00am SW 3 5 - - - - 10 - - 18.8 1012.9 0.0
04/10:30am CALM 0 3 - - - - 10 - - 18.0 1013.2 0.0
04/10:00am W 3 5 - - - - 10 - - 16.3 1013.8 0.0
04/09:30am WSW 2 4 - - - - 10 - - 13.6 1014.0 0.0
04/09:00am W 4 6 - - - - 10 - - 11.9 1014.0 0.0
04/08:30am WNW 4 6 - - - - 10 - - 10.5 1014.2 0.0
04/08:00am NW 1 4 - - - - 10 - - 8.8 1014.3 0.0
04/07:30am CALM 0 3 - - - - 10 - - 7.0 1014.4 0.0
04/07:00am CALM 0 0 - - - - 10 - - 4.6 1014.3 0.0
04/06:30am CALM 0 0 - - - - 10 - - 4.5 1014.3 0.0
04/06:00am CALM 0 0 - - - - 10 - - 4.5 1014.4 0.0
04/05:30am W 3 4 - - - - 10 - - 5.5 1014.2 0.0
04/05:00am CALM 0 0 - - - - 10 - - 5.8 1014.3 0.0
04/04:30am WNW 2 4 - - - - 10 - - 5.8 1014.4 0.0
04/04:00am WSW 3 4 - - - - 10 - - 6.7 1014.6 0.0
04/03:30am WSW 2 4 - - - - 10 - - 6.4 1014.7 0.0
04/03:00am W 3 5 - - - - 10 - - 6.6 1014.7 0.0
04/02:30am W 3 4 - - - - 10 - - 7.4 1015.0 0.0
04/02:00am WSW 2 4 - - - - 10 - - 8.0 1015.3 0.0
04/01:30am WNW 2 4 - - - - 10 - - 7.9 1015.5 0.0
04/01:00am NW 3 4 - - - - 10 - - 8.3 1015.8 0.0
04/12:30am WSW 4 6 - - - - 10 - - 9.1 1015.9 0.0
04/12:00am WSW 4 5 - - - - 10 - - 9.3 1016.2 0.0
 
Date/Time
EST
Wind Sea
Height
m
Swell Vis
km
Cloud Weather Temp
°C
Press
hPa
Rain since
9am
mm
Dir  Spd
kts
Gust
kts
Height
m
Period
s
Dir
03/11:30pm W 4 5 - - - - 10 - - 9.7 1016.3 0.0
03/11:00pm WSW 3 5 - - - - 10 - - 9.5 1016.4 0.0
03/10:33pm WSW 4 6 - - - - 10 - - 10.0 1016.6 0.0
03/10:30pm W 3 5 - - - - 10 - - 10.1 1016.6 0.0
03/10:00pm CALM 0 0 - - - - 6 - - 10.1 1016.7 0.0
03/09:39pm CALM 0 0 - - - - 5 - - 9.6 1016.8 0.0
03/09:35pm CALM 0 0 - - - - 6 - - 10.5 1016.8 0.0
03/09:30pm CALM 0 0 - - - - 10 - - 10.7 1016.9 0.0
03/09:18pm CALM 0 0 - - - - 5 - - 10.6 1016.8 0.0
03/09:00pm CALM 0 3 - - - - 8 - - 11.5 1016.8 0.0
03/08:30pm NW 4 5 - - - - 10 - - 11.9 1016.9 0.0
03/08:00pm W 1 5 - - - - 10 - - 12.2 1016.8 0.0
03/07:30pm CALM 0 0 - - - - 10 - - 13.4 1016.6 0.0
03/07:00pm CALM 0 0 - - - - 10 - - 14.0 1016.4 0.0
03/06:30pm CALM 0 0 - - - - 10 - - 14.7 1016.3 0.0
03/06:00pm CALM 0 0 - - - - 10 - - 15.4 1016.1 0.0
03/05:30pm E 3 4 - - - - 10 - - 15.7 1016.0 0.0
03/05:00pm ESE 4 6 - - - - 10 - - 17.0 1016.0 0.0
03/04:30pm ESE 5 7 - - - - 10 - - 18.5 1016.1 0.0
03/04:00pm ESE 5 8 - - - - 10 - - 18.8 1016.2 0.0
03/03:30pm ESE 7 9 - - - - 10 - - 18.6 1016.1 0.0
03/03:00pm SE 8 10 - - - - 10 - - 19.2 1015.8 0.0
03/02:30pm S 2 5 - - - - 10 - - 20.8 1016.1 0.0
03/02:00pm N 4 5 - - - - 10 - - 21.1 1016.3 0.0
03/01:30pm E 1 5 - - - - 10 - - 20.3 1016.7 0.0
03/01:00pm S 1 4 - - - - 10 - - 20.4 1017.4 0.0
03/12:30pm S 4 5 - - - - 10 - - 18.6 1017.7 0.0
03/12:00pm S 3 6 - - - - 10 - - 18.1 1018.4 0.0
03/11:30am ESE 2 4 - - - - 10 - - 17.7 1019.0 0.0
03/11:00am S 4 6 - - - - 10 - - 17.0 1019.5 0.0
03/10:30am SW 4 6 - - - - 10 - - 16.0 1020.1 0.0
03/10:00am W 5 7 - - - - 10 - - 14.5 1020.7 0.0
03/09:30am W 4 5 - - - - 10 - - 13.0 1021.0 0.0
03/09:00am WSW 6 7 - - - - 10 - - 11.5 1021.2 0.4
03/08:30am W 5 7 - - - - 10 - - 10.0 1021.2 0.4
03/08:00am WSW 5 6 - - - - 10 - - 8.2 1021.1 0.4
03/07:30am W 4 4 - - - - 10 - - 6.7 1020.9 0.4
03/07:00am NW 2 4 - - - - 10 - - 5.9 1020.7 0.4
03/06:30am N 2 4 - - - - 10 - - 5.5 1020.7 0.4
03/06:00am CALM 0 0 - - - - 7 Partly cloudy - 4.8 1020.7 0.2
03/05:30am W 3 5 - - - - 10 - - 6.4 1020.8 0.2
03/05:00am WNW 1 4 - - - - 10 - - 5.7 1020.8 0.2
03/04:30am CALM 0 0 - - - - 10 - - 6.1 1020.5 0.2
03/04:00am NW 2 4 - - - - 10 - - 6.0 1020.6 0.2
03/03:39am CALM 0 0 - - - - 5 - - 6.0 1020.8 0.2
03/03:30am CALM 0 0 - - - - 7 - - 5.8 1020.8 0.2
03/03:00am CALM 0 0 - - - - 10 - - 6.3 1020.9 0.2
03/02:37am CALM 0 0 - - - - 5 - - 6.5 1021.1 0.2
03/02:30am CALM 0 0 - - - - 10 - - 6.2 1021.2 0.2
03/02:00am CALM 0 0 - - - - 10 - - 6.9 1021.5 0.2
03/01:30am CALM 0 0 - - - - 10 - - 6.3 1021.7 0.2
03/01:00am CALM 0 0 - - - - 9 - - 7.1 1021.9 0.2
03/12:30am CALM 0 0 - - - - 9 - - 7.7 1022.1 0.2
03/12:00am W 2 4 - - - - 10 - - 8.3 1022.3 0.2
 
Date/Time
EST
Wind Sea
Height
m
Swell Vis
km
Cloud Weather Temp
°C
Press
hPa
Rain since
9am
mm
Dir  Spd
kts
Gust
kts
Height
m
Period
s
Dir
02/11:30pm WSW 4 4 - - - - 10 - - 8.5 1022.5 0.2
02/11:00pm WSW 3 4 - - - - 10 - - 8.6 1022.7 0.2
02/10:30pm SW 1 3 - - - - 10 - - 8.8 1022.9 0.2
02/10:00pm CALM 0 0 - - - - 10 - - 9.4 1023.0 0.2
02/09:30pm CALM 0 0 - - - - 10 - - 9.6 1023.1 0.2
02/09:00pm CALM 0 0 - - - - 10 - - 10.3 1023.3 0.2
02/08:30pm CALM 0 0 - - - - 10 - - 10.5 1023.5 0.2
02/08:00pm SW 2 4 - - - - 10 - - 11.1 1023.6 0.2
02/07:30pm CALM 0 0 - - - - 10 - - 11.1 1023.5 0.2
02/07:00pm N 2 4 - - - - 10 - - 12.3 1023.4 0.2
02/06:30pm CALM 0 0 - - - - 10 - - 12.7 1023.3 0.2
02/06:00pm CALM 0 0 - - - - 10 - - 13.8 1023.2 0.2
02/05:30pm ESE 4 5 - - - - 10 - - 14.5 1023.0 0.2
02/05:00pm E 4 5 - - - - 10 - - 16.3 1022.9 0.2
02/04:30pm E 6 8 - - - - 10 - - 17.3 1022.9 0.2
02/04:00pm E 6 8 - - - - 10 - - 17.9 1022.9 0.2
02/03:30pm E 7 9 - - - - 10 - - 18.3 1022.8 0.2
02/03:00pm ESE 7 10 - - - - 10 - - 18.9 1022.7 0.2
02/02:30pm SE 8 10 - - - - 10 - - 18.9 1022.7 0.2
02/02:00pm SE 7 8 - - - - 10 - - 19.1 1022.7 0.2
02/01:30pm SE 8 12 - - - - 10 - - 19.1 1023.0 0.2
02/01:00pm SE 6 9 - - - - 10 - - 19.2 1023.3 0.2
02/12:30pm NE 4 7 - - - - 10 - - 19.6 1023.7 0.2
02/12:00pm ESE 3 4 - - - - 10 - - 18.8 1024.2 0.2
02/11:30am WSW 3 5 - - - - 10 - - 18.2 1024.7 0.2
02/11:00am WSW 5 6 - - - - 10 - - 17.0 1025.1 0.2
02/10:30am WSW 5 6 - - - - 10 - - 15.7 1025.4 0.0
02/10:00am WSW 5 7 - - - - 10 - - 14.4 1025.7 0.0
02/09:30am W 6 8 - - - - 10 - - 13.1 1025.9 0.0
02/09:00am W 5 7 - - - - 10 - - 11.6 1025.9 0.0
02/08:30am W 6 9 - - - - 10 - - 10.5 1025.8 0.0
02/08:00am W 6 8 - - - - 10 - - 8.8 1025.6 0.0
02/07:30am W 5 6 - - - - 10 - - 7.6 1025.5 0.0
02/07:00am W 5 6 - - - - 10 - - 6.9 1025.1 0.0
02/06:30am W 4 5 - - - - 10 - - 6.6 1024.8 0.0
02/06:00am W 5 6 - - - - 10 - - 6.8 1024.5 0.0
02/05:30am CALM 0 0 - - - - 10 - - 6.4 1024.2 0.0
02/05:00am CALM 0 0 - - - - 9 - - 5.4 1024.0 0.0
02/04:30am CALM 0 0 - - - - 10 - - 5.6 1023.9 0.0
02/04:00am CALM 0 0 - - - - 10 - - 6.0 1023.8 0.0
02/03:55am CALM 0 0 - - - - 10 - - 5.9 1023.8 0.0
02/03:38am CALM 0 0 - - - - 5 - - 5.9 1023.8 0.0
02/03:30am CALM 0 0 - - - - 10 - - 6.4 1023.8 0.0
02/03:00am CALM 0 0 - - - - 10 - - 6.6 1023.9 0.0
02/02:30am W 3 4 - - - - 10 - - 7.0 1024.1 0.0
02/02:00am W 4 5 - - - - 10 - - 7.6 1024.3 0.0
02/01:30am CALM 0 0 - - - - 10 - - 7.5 1024.4 0.0
02/01:00am CALM 0 0 - - - - 10 - - 7.1 1024.6 0.0
02/12:30am CALM 0 0 - - - - 10 - - 7.3 1024.7 0.0
02/12:00am CALM 0 0 - - - - 10 - - 7.5 1025.0 0.0
 
Date/Time
EST
Wind Sea
Height
m
Swell Vis
km
Cloud Weather Temp
°C
Press
hPa
Rain since
9am
mm
Dir  Spd
kts
Gust
kts
Height
m
Period
s
Dir
01/11:30pm W 3 4 - - - - 10 - - 8.3 1025.2 0.0
01/11:00pm WSW 4 5 - - - - 10 - - 9.1 1025.4 0.0
01/10:30pm NW 4 4 - - - - 10 - - 8.8 1025.2 0.0
01/10:00pm SSW 4 5 - - - - 10 - - 9.1 1025.1 0.0
01/09:30pm CALM 0 0 - - - - 10 - - 9.1 1024.9 0.0
01/09:00pm WNW 1 3 - - - - 10 - - 9.4 1025.0 0.0
01/08:30pm WSW 4 5 - - - - 10 - - 10.4 1025.0 0.0
01/08:00pm CALM 0 0 - - - - 10 - - 10.2 1024.9 0.0
01/07:30pm CALM 0 0 - - - - 10 - - 10.9 1024.7 0.0
01/07:00pm CALM 0 0 - - - - 10 - - 11.9 1024.6 0.0
01/06:30pm CALM 0 0 - - - - 10 - - 12.3 1024.4 0.0
01/06:00pm CALM 0 0 - - - - 10 - - 13.8 1024.2 0.0
01/05:30pm ENE 1 4 - - - - 10 - - 14.1 1023.9 0.0
01/05:00pm E 5 6 - - - - 10 - - 15.7 1023.8 0.0
01/04:30pm E 7 8 - - - - 10 - - 16.5 1023.6 0.0

Other formats

Comma delimited format used in spreadsheet applications
http://www.bom.gov.au/fwo/IDN60701/IDN60701.95784.axf

JavaScript Object Notation format (JSON) in row-major order
http://www.bom.gov.au/fwo/IDN60701/IDN60701.95784.json

Data quality

Most of these data are generated automatically and are frequently updated. Quality checks on data are not normally performed. It is possible for incorrect values to appear. Refer to information at About Latest Weather Observations and please check the disclaimer before using these data.